sensor_id;sensor_type;location;lat;lon;timestamp;P1;durP1;ratioP1;P2;durP2;ratioP2
75189;SDS011;69198;44.694;37.790;2023-05-10T00:00:21;2.63;;;0.38;;
75189;SDS011;69198;44.694;37.790;2023-05-10T00:01:24;3.00;;;0.40;;
75189;SDS011;69198;44.694;37.790;2023-05-10T00:02:25;3.28;;;0.55;;
75189;SDS011;69198;44.694;37.790;2023-05-10T00:03:26;2.72;;;0.43;;
75189;SDS011;69198;44.694;37.790;2023-05-10T00:04:27;2.58;;;0.35;;
75189;SDS011;69198;44.694;37.790;2023-05-10T00:05:28;2.42;;;0.40;;
75189;SDS011;69198;44.694;37.790;2023-05-10T00:06:29;3.63;;;0.40;;
75189;SDS011;69198;44.694;37.790;2023-05-10T00:07:30;2.85;;;0.40;;
75189;SDS011;69198;44.694;37.790;2023-05-10T00:08:31;2.97;;;0.40;;
75189;SDS011;69198;44.694;37.790;2023-05-10T00:09:33;2.83;;;0.35;;
75189;SDS011;69198;44.694;37.790;2023-05-10T00:10:34;3.47;;;0.50;;
75189;SDS011;69198;44.694;37.790;2023-05-10T00:11:34;3.03;;;0.30;;
75189;SDS011;69198;44.694;37.790;2023-05-10T00:12:36;2.28;;;0.30;;
75189;SDS011;69198;44.694;37.790;2023-05-10T00:13:37;3.60;;;0.40;;
75189;SDS011;69198;44.694;37.790;2023-05-10T00:14:37;3.33;;;0.50;;
75189;SDS011;69198;44.694;37.790;2023-05-10T00:15:38;2.53;;;0.40;;
75189;SDS011;69198;44.694;37.790;2023-05-10T00:16:39;3.17;;;0.40;;
75189;SDS011;69198;44.694;37.790;2023-05-10T00:17:41;2.78;;;0.50;;
75189;SDS011;69198;44.694;37.790;2023-05-10T00:18:42;2.77;;;0.43;;
75189;SDS011;69198;44.694;37.790;2023-05-10T00:19:43;3.00;;;0.30;;
75189;SDS011;69198;44.694;37.790;2023-05-10T00:20:44;2.47;;;0.30;;
75189;SDS011;69198;44.694;37.790;2023-05-10T00:21:46;2.40;;;0.30;;
75189;SDS011;69198;44.694;37.790;2023-05-10T00:22:47;1.95;;;0.20;;
75189;SDS011;69198;44.694;37.790;2023-05-10T00:23:48;2.38;;;0.30;;
75189;SDS011;69198;44.694;37.790;2023-05-10T00:24:49;3.08;;;0.40;;
75189;SDS011;69198;44.694;37.790;2023-05-10T00:25:50;2.30;;;0.45;;
75189;SDS011;69198;44.694;37.790;2023-05-10T00:26:51;2.50;;;0.50;;
75189;SDS011;69198;44.694;37.790;2023-05-10T00:27:52;3.38;;;0.50;;
75189;SDS011;69198;44.694;37.790;2023-05-10T00:28:55;3.00;;;0.50;;
75189;SDS011;69198;44.694;37.790;2023-05-10T00:29:57;4.18;;;0.40;;
75189;SDS011;69198;44.694;37.790;2023-05-10T00:30:58;2.85;;;0.40;;
75189;SDS011;69198;44.694;37.790;2023-05-10T00:31:59;3.90;;;0.55;;
75189;SDS011;69198;44.694;37.790;2023-05-10T00:33:00;2.50;;;0.30;;
75189;SDS011;69198;44.694;37.790;2023-05-10T00:34:01;2.75;;;0.40;;
75189;SDS011;69198;44.694;37.790;2023-05-10T00:35:02;3.42;;;0.40;;
75189;SDS011;69198;44.694;37.790;2023-05-10T00:36:03;3.00;;;0.43;;
75189;SDS011;69198;44.694;37.790;2023-05-10T00:37:07;2.93;;;0.50;;
75189;SDS011;69198;44.694;37.790;2023-05-10T00:38:08;2.85;;;0.40;;
75189;SDS011;69198;44.694;37.790;2023-05-10T00:39:09;3.60;;;0.40;;
75189;SDS011;69198;44.694;37.790;2023-05-10T00:40:10;2.70;;;0.35;;
75189;SDS011;69198;44.694;37.790;2023-05-10T00:41:12;3.47;;;0.60;;
75189;SDS011;69198;44.694;37.790;2023-05-10T00:42:14;4.35;;;0.50;;
75189;SDS011;69198;44.694;37.790;2023-05-10T00:43:15;3.30;;;0.60;;
75189;SDS011;69198;44.694;37.790;2023-05-10T00:44:16;2.67;;;0.32;;
75189;SDS011;69198;44.694;37.790;2023-05-10T00:45:18;2.80;;;0.40;;
75189;SDS011;69198;44.694;37.790;2023-05-10T00:46:19;4.13;;;0.88;;
75189;SDS011;69198;44.694;37.790;2023-05-10T00:47:22;3.13;;;0.45;;
75189;SDS011;69198;44.694;37.790;2023-05-10T00:48:23;3.30;;;0.50;;
75189;SDS011;69198;44.694;37.790;2023-05-10T00:49:24;2.97;;;0.40;;
75189;SDS011;69198;44.694;37.790;2023-05-10T00:50:25;3.42;;;0.50;;
75189;SDS011;69198;44.694;37.790;2023-05-10T00:51:26;3.25;;;0.50;;
75189;SDS011;69198;44.694;37.790;2023-05-10T00:52:28;4.30;;;0.50;;
75189;SDS011;69198;44.694;37.790;2023-05-10T00:53:30;2.55;;;0.40;;
75189;SDS011;69198;44.694;37.790;2023-05-10T00:54:33;3.17;;;0.40;;
75189;SDS011;69198;44.694;37.790;2023-05-10T00:55:34;3.23;;;0.50;;
75189;SDS011;69198;44.694;37.790;2023-05-10T00:56:35;5.53;;;0.40;;
75189;SDS011;69198;44.694;37.790;2023-05-10T00:57:37;3.78;;;0.50;;
75189;SDS011;69198;44.694;37.790;2023-05-10T00:58:39;3.45;;;0.50;;
75189;SDS011;69198;44.694;37.790;2023-05-10T00:59:40;4.28;;;0.50;;
75189;SDS011;69198;44.694;37.790;2023-05-10T01:00:41;4.00;;;0.52;;
75189;SDS011;69198;44.694;37.790;2023-05-10T01:01:47;3.75;;;0.50;;
75189;SDS011;69198;44.694;37.790;2023-05-10T01:02:48;6.78;;;0.60;;
75189;SDS011;69198;44.694;37.790;2023-05-10T01:03:49;4.38;;;0.60;;
75189;SDS011;69198;44.694;37.790;2023-05-10T01:04:51;3.30;;;0.40;;
75189;SDS011;69198;44.694;37.790;2023-05-10T01:05:52;3.67;;;0.40;;
75189;SDS011;69198;44.694;37.790;2023-05-10T01:06:53;3.78;;;0.40;;
75189;SDS011;69198;44.694;37.790;2023-05-10T01:07:54;3.25;;;0.57;;
75189;SDS011;69198;44.694;37.790;2023-05-10T01:08:56;3.15;;;0.45;;
75189;SDS011;69198;44.694;37.790;2023-05-10T01:09:57;3.03;;;0.50;;
75189;SDS011;69198;44.694;37.790;2023-05-10T01:10:58;2.95;;;0.40;;
75189;SDS011;69198;44.694;37.790;2023-05-10T01:11:59;2.85;;;0.40;;
75189;SDS011;69198;44.694;37.790;2023-05-10T01:13:03;4.28;;;0.47;;
75189;SDS011;69198;44.694;37.790;2023-05-10T01:14:04;2.60;;;0.30;;
75189;SDS011;69198;44.694;37.790;2023-05-10T01:15:08;3.42;;;0.40;;
75189;SDS011;69198;44.694;37.790;2023-05-10T01:16:12;3.20;;;0.40;;
75189;SDS011;69198;44.694;37.790;2023-05-10T01:17:13;2.40;;;0.30;;
75189;SDS011;69198;44.694;37.790;2023-05-10T01:18:16;2.33;;;0.30;;
75189;SDS011;69198;44.694;37.790;2023-05-10T01:19:22;3.15;;;0.40;;
75189;SDS011;69198;44.694;37.790;2023-05-10T01:20:25;3.25;;;0.30;;
75189;SDS011;69198;44.694;37.790;2023-05-10T01:33:30;2.63;;;0.38;;
75189;SDS011;69198;44.694;37.790;2023-05-10T01:36:08;3.08;;;0.50;;
75189;SDS011;69198;44.694;37.790;2023-05-10T01:37:36;4.47;;;0.38;;
75189;SDS011;69198;44.694;37.790;2023-05-10T01:39:49;3.05;;;0.40;;
75189;SDS011;69198;44.694;37.790;2023-05-10T01:42:23;3.37;;;0.53;;
75189;SDS011;69198;44.694;37.790;2023-05-10T01:43:28;3.80;;;0.60;;
75189;SDS011;69198;44.694;37.790;2023-05-10T01:44:36;3.85;;;0.50;;
75189;SDS011;69198;44.694;37.790;2023-05-10T01:46:24;2.67;;;0.50;;
75189;SDS011;69198;44.694;37.790;2023-05-10T01:47:20;2.83;;;0.40;;
75189;SDS011;69198;44.694;37.790;2023-05-10T01:48:31;2.25;;;0.40;;
75189;SDS011;69198;44.694;37.790;2023-05-10T01:49:39;2.40;;;0.40;;
75189;SDS011;69198;44.694;37.790;2023-05-10T01:50:45;3.28;;;0.50;;
75189;SDS011;69198;44.694;37.790;2023-05-10T01:51:49;3.13;;;0.50;;
75189;SDS011;69198;44.694;37.790;2023-05-10T01:52:53;2.20;;;0.30;;
75189;SDS011;69198;44.694;37.790;2023-05-10T01:54:01;2.93;;;0.50;;
75189;SDS011;69198;44.694;37.790;2023-05-10T01:55:06;2.90;;;0.40;;
75189;SDS011;69198;44.694;37.790;2023-05-10T01:56:09;3.08;;;0.40;;
75189;SDS011;69198;44.694;37.790;2023-05-10T01:57:13;3.22;;;0.40;;
75189;SDS011;69198;44.694;37.790;2023-05-10T01:58:36;3.13;;;0.60;;
75189;SDS011;69198;44.694;37.790;2023-05-10T01:59:40;2.92;;;0.38;;
75189;SDS011;69198;44.694;37.790;2023-05-10T02:00:46;3.88;;;0.60;;
75189;SDS011;69198;44.694;37.790;2023-05-10T02:01:49;3.15;;;0.47;;
75189;SDS011;69198;44.694;37.790;2023-05-10T02:02:53;2.75;;;0.35;;
75189;SDS011;69198;44.694;37.790;2023-05-10T02:03:55;2.67;;;0.30;;
75189;SDS011;69198;44.694;37.790;2023-05-10T02:04:58;3.17;;;0.53;;
75189;SDS011;69198;44.694;37.790;2023-05-10T02:06:01;2.63;;;0.40;;
75189;SDS011;69198;44.694;37.790;2023-05-10T02:07:03;3.22;;;0.50;;
75189;SDS011;69198;44.694;37.790;2023-05-10T02:08:06;3.28;;;0.68;;
75189;SDS011;69198;44.694;37.790;2023-05-10T02:09:10;3.60;;;0.73;;
75189;SDS011;69198;44.694;37.790;2023-05-10T02:10:12;3.95;;;0.60;;
75189;SDS011;69198;44.694;37.790;2023-05-10T02:11:14;3.60;;;0.70;;
75189;SDS011;69198;44.694;37.790;2023-05-10T02:12:18;3.75;;;0.70;;
75189;SDS011;69198;44.694;37.790;2023-05-10T02:13:20;3.95;;;0.73;;
75189;SDS011;69198;44.694;37.790;2023-05-10T02:14:22;4.25;;;0.70;;
75189;SDS011;69198;44.694;37.790;2023-05-10T02:15:26;3.90;;;0.73;;
75189;SDS011;69198;44.694;37.790;2023-05-10T02:16:29;3.65;;;0.70;;
75189;SDS011;69198;44.694;37.790;2023-05-10T02:17:32;4.00;;;0.75;;
75189;SDS011;69198;44.694;37.790;2023-05-10T02:18:34;3.75;;;0.70;;
75189;SDS011;69198;44.694;37.790;2023-05-10T02:19:39;3.72;;;0.68;;
75189;SDS011;69198;44.694;37.790;2023-05-10T02:20:43;3.63;;;0.50;;
75189;SDS011;69198;44.694;37.790;2023-05-10T02:21:47;6.05;;;0.70;;
75189;SDS011;69198;44.694;37.790;2023-05-10T02:22:50;5.20;;;0.60;;
75189;SDS011;69198;44.694;37.790;2023-05-10T02:23:53;4.05;;;0.65;;
75189;SDS011;69198;44.694;37.790;2023-05-10T02:24:55;3.90;;;0.30;;
75189;SDS011;69198;44.694;37.790;2023-05-10T02:25:59;3.30;;;0.30;;
75189;SDS011;69198;44.694;37.790;2023-05-10T02:27:02;4.22;;;0.52;;
75189;SDS011;69198;44.694;37.790;2023-05-10T02:28:04;3.10;;;0.50;;
75189;SDS011;69198;44.694;37.790;2023-05-10T02:29:07;3.15;;;0.40;;
75189;SDS011;69198;44.694;37.790;2023-05-10T02:30:10;3.28;;;0.40;;
75189;SDS011;69198;44.694;37.790;2023-05-10T02:31:12;2.08;;;0.20;;
75189;SDS011;69198;44.694;37.790;2023-05-10T02:32:14;4.93;;;0.70;;
75189;SDS011;69198;44.694;37.790;2023-05-10T02:33:16;3.22;;;0.43;;
75189;SDS011;69198;44.694;37.790;2023-05-10T02:34:20;4.10;;;0.75;;
75189;SDS011;69198;44.694;37.790;2023-05-10T02:35:22;3.67;;;0.43;;
75189;SDS011;69198;44.694;37.790;2023-05-10T02:36:24;3.20;;;0.50;;
75189;SDS011;69198;44.694;37.790;2023-05-10T02:37:27;3.13;;;0.45;;
75189;SDS011;69198;44.694;37.790;2023-05-10T02:38:29;4.22;;;0.60;;
75189;SDS011;69198;44.694;37.790;2023-05-10T02:39:32;3.50;;;0.52;;
75189;SDS011;69198;44.694;37.790;2023-05-10T02:40:34;3.10;;;0.52;;
75189;SDS011;69198;44.694;37.790;2023-05-10T02:41:38;3.95;;;0.85;;
75189;SDS011;69198;44.694;37.790;2023-05-10T02:42:42;4.13;;;0.90;;
75189;SDS011;69198;44.694;37.790;2023-05-10T02:43:45;4.25;;;0.80;;
75189;SDS011;69198;44.694;37.790;2023-05-10T02:44:47;3.90;;;0.60;;
75189;SDS011;69198;44.694;37.790;2023-05-10T02:45:50;6.00;;;0.85;;
75189;SDS011;69198;44.694;37.790;2023-05-10T02:46:52;4.80;;;1.13;;
75189;SDS011;69198;44.694;37.790;2023-05-10T02:47:53;4.28;;;0.68;;
75189;SDS011;69198;44.694;37.790;2023-05-10T02:48:57;4.75;;;0.70;;
75189;SDS011;69198;44.694;37.790;2023-05-10T02:49:58;3.90;;;0.70;;
75189;SDS011;69198;44.694;37.790;2023-05-10T02:51:00;3.45;;;0.60;;
75189;SDS011;69198;44.694;37.790;2023-05-10T02:52:05;3.70;;;0.57;;
75189;SDS011;69198;44.694;37.790;2023-05-10T02:53:10;4.18;;;0.98;;
75189;SDS011;69198;44.694;37.790;2023-05-10T02:54:18;6.90;;;0.60;;
75189;SDS011;69198;44.694;37.790;2023-05-10T02:55:22;3.70;;;0.60;;
75189;SDS011;69198;44.694;37.790;2023-05-10T02:56:31;4.30;;;0.63;;
75189;SDS011;69198;44.694;37.790;2023-05-10T02:57:34;3.27;;;0.70;;
75189;SDS011;69198;44.694;37.790;2023-05-10T02:58:41;3.15;;;0.47;;
75189;SDS011;69198;44.694;37.790;2023-05-10T02:59:42;3.60;;;0.70;;
75189;SDS011;69198;44.694;37.790;2023-05-10T03:00:45;3.00;;;0.50;;
75189;SDS011;69198;44.694;37.790;2023-05-10T03:01:46;2.20;;;0.30;;
75189;SDS011;69198;44.694;37.790;2023-05-10T03:02:47;2.70;;;0.50;;
75189;SDS011;69198;44.694;37.790;2023-05-10T03:03:48;3.00;;;0.47;;
75189;SDS011;69198;44.694;37.790;2023-05-10T03:04:49;3.13;;;0.50;;
75189;SDS011;69198;44.694;37.790;2023-05-10T03:05:51;2.72;;;0.50;;
75189;SDS011;69198;44.694;37.790;2023-05-10T03:06:56;3.85;;;0.60;;
75189;SDS011;69198;44.694;37.790;2023-05-10T03:07:57;3.97;;;0.67;;
75189;SDS011;69198;44.694;37.790;2023-05-10T03:08:58;3.15;;;0.50;;
75189;SDS011;69198;44.694;37.790;2023-05-10T03:10:00;3.08;;;0.50;;
75189;SDS011;69198;44.694;37.790;2023-05-10T03:14:13;4.90;;;0.57;;
75189;SDS011;69198;44.694;37.790;2023-05-10T03:16:41;3.03;;;0.50;;
75189;SDS011;69198;44.694;37.790;2023-05-10T03:19:12;3.15;;;0.60;;
75189;SDS011;69198;44.694;37.790;2023-05-10T03:20:21;3.60;;;0.70;;
75189;SDS011;69198;44.694;37.790;2023-05-10T03:21:26;3.42;;;0.68;;
75189;SDS011;69198;44.694;37.790;2023-05-10T03:22:47;3.83;;;0.80;;
75189;SDS011;69198;44.694;37.790;2023-05-10T03:24:13;3.70;;;0.75;;
75189;SDS011;69198;44.694;37.790;2023-05-10T03:25:16;3.60;;;0.60;;
75189;SDS011;69198;44.694;37.790;2023-05-10T03:26:23;3.40;;;0.40;;
75189;SDS011;69198;44.694;37.790;2023-05-10T03:27:32;3.03;;;0.50;;
75189;SDS011;69198;44.694;37.790;2023-05-10T03:28:35;3.80;;;0.70;;
75189;SDS011;69198;44.694;37.790;2023-05-10T03:29:38;3.95;;;0.60;;
75189;SDS011;69198;44.694;37.790;2023-05-10T03:30:40;3.95;;;0.70;;
75189;SDS011;69198;44.694;37.790;2023-05-10T03:31:44;3.50;;;0.70;;
75189;SDS011;69198;44.694;37.790;2023-05-10T03:32:45;4.00;;;0.98;;
75189;SDS011;69198;44.694;37.790;2023-05-10T03:33:49;3.60;;;0.70;;
75189;SDS011;69198;44.694;37.790;2023-05-10T03:34:56;6.75;;;0.93;;
75189;SDS011;69198;44.694;37.790;2023-05-10T03:35:58;5.47;;;0.50;;
75189;SDS011;69198;44.694;37.790;2023-05-10T03:37:00;4.18;;;0.60;;
75189;SDS011;69198;44.694;37.790;2023-05-10T03:38:04;3.15;;;0.60;;
75189;SDS011;69198;44.694;37.790;2023-05-10T03:39:05;4.75;;;0.80;;
75189;SDS011;69198;44.694;37.790;2023-05-10T03:40:08;6.10;;;0.90;;
75189;SDS011;69198;44.694;37.790;2023-05-10T03:41:11;3.20;;;0.60;;
75189;SDS011;69198;44.694;37.790;2023-05-10T03:42:12;2.90;;;0.40;;
75189;SDS011;69198;44.694;37.790;2023-05-10T03:43:14;5.05;;;0.40;;
75189;SDS011;69198;44.694;37.790;2023-05-10T03:44:16;2.97;;;0.43;;
75189;SDS011;69198;44.694;37.790;2023-05-10T03:45:18;2.30;;;0.40;;
75189;SDS011;69198;44.694;37.790;2023-05-10T03:46:19;3.55;;;0.50;;
75189;SDS011;69198;44.694;37.790;2023-05-10T03:47:20;2.55;;;0.40;;
75189;SDS011;69198;44.694;37.790;2023-05-10T03:48:21;3.67;;;0.50;;
75189;SDS011;69198;44.694;37.790;2023-05-10T03:49:22;2.45;;;0.40;;
75189;SDS011;69198;44.694;37.790;2023-05-10T03:50:23;2.93;;;0.40;;
75189;SDS011;69198;44.694;37.790;2023-05-10T03:51:24;2.60;;;0.40;;
75189;SDS011;69198;44.694;37.790;2023-05-10T03:52:28;4.22;;;0.40;;
75189;SDS011;69198;44.694;37.790;2023-05-10T03:53:29;2.92;;;0.47;;
75189;SDS011;69198;44.694;37.790;2023-05-10T03:54:30;2.58;;;0.40;;
75189;SDS011;69198;44.694;37.790;2023-05-10T03:55:32;2.03;;;0.25;;
75189;SDS011;69198;44.694;37.790;2023-05-10T03:56:36;1.90;;;0.30;;
75189;SDS011;69198;44.694;37.790;2023-05-10T03:57:37;3.63;;;0.40;;
75189;SDS011;69198;44.694;37.790;2023-05-10T03:58:40;2.63;;;0.30;;
75189;SDS011;69198;44.694;37.790;2023-05-10T03:59:41;3.53;;;0.40;;
75189;SDS011;69198;44.694;37.790;2023-05-10T04:00:42;2.75;;;0.38;;
75189;SDS011;69198;44.694;37.790;2023-05-10T04:01:46;3.22;;;0.50;;
75189;SDS011;69198;44.694;37.790;2023-05-10T04:02:47;2.20;;;0.40;;
75189;SDS011;69198;44.694;37.790;2023-05-10T04:03:53;2.25;;;0.30;;
75189;SDS011;69198;44.694;37.790;2023-05-10T04:04:54;3.15;;;0.60;;
75189;SDS011;69198;44.694;37.790;2023-05-10T04:05:59;2.72;;;0.40;;
75189;SDS011;69198;44.694;37.790;2023-05-10T04:07:01;2.95;;;0.40;;
75189;SDS011;69198;44.694;37.790;2023-05-10T04:08:02;3.27;;;0.47;;
75189;SDS011;69198;44.694;37.790;2023-05-10T04:09:04;2.38;;;0.30;;
75189;SDS011;69198;44.694;37.790;2023-05-10T04:10:05;3.10;;;0.60;;
75189;SDS011;69198;44.694;37.790;2023-05-10T04:11:07;2.72;;;0.50;;
75189;SDS011;69198;44.694;37.790;2023-05-10T04:12:09;3.10;;;0.55;;
75189;SDS011;69198;44.694;37.790;2023-05-10T04:13:10;3.20;;;0.30;;
75189;SDS011;69198;44.694;37.790;2023-05-10T04:14:11;3.03;;;0.52;;
75189;SDS011;69198;44.694;37.790;2023-05-10T04:15:12;2.80;;;0.45;;
75189;SDS011;69198;44.694;37.790;2023-05-10T04:16:13;2.40;;;0.30;;
75189;SDS011;69198;44.694;37.790;2023-05-10T04:17:14;2.50;;;0.30;;
75189;SDS011;69198;44.694;37.790;2023-05-10T04:18:15;2.92;;;0.43;;
75189;SDS011;69198;44.694;37.790;2023-05-10T04:19:17;3.17;;;0.60;;
75189;SDS011;69198;44.694;37.790;2023-05-10T04:20:18;3.40;;;0.70;;
75189;SDS011;69198;44.694;37.790;2023-05-10T04:21:19;3.72;;;0.50;;
75189;SDS011;69198;44.694;37.790;2023-05-10T04:22:20;2.53;;;0.43;;
75189;SDS011;69198;44.694;37.790;2023-05-10T04:23:21;2.47;;;0.40;;
75189;SDS011;69198;44.694;37.790;2023-05-10T04:24:22;2.17;;;0.20;;
75189;SDS011;69198;44.694;37.790;2023-05-10T04:25:23;2.47;;;0.30;;
75189;SDS011;69198;44.694;37.790;2023-05-10T04:26:24;2.20;;;0.40;;
75189;SDS011;69198;44.694;37.790;2023-05-10T04:27:25;2.63;;;0.32;;
75189;SDS011;69198;44.694;37.790;2023-05-10T04:28:27;2.85;;;0.30;;
75189;SDS011;69198;44.694;37.790;2023-05-10T04:29:28;2.65;;;0.40;;
75189;SDS011;69198;44.694;37.790;2023-05-10T04:30:29;3.13;;;0.50;;
75189;SDS011;69198;44.694;37.790;2023-05-10T04:31:50;2.85;;;0.50;;
75189;SDS011;69198;44.694;37.790;2023-05-10T04:32:51;2.65;;;0.60;;
75189;SDS011;69198;44.694;37.790;2023-05-10T04:33:52;2.47;;;0.43;;
75189;SDS011;69198;44.694;37.790;2023-05-10T04:34:53;3.13;;;0.70;;
75189;SDS011;69198;44.694;37.790;2023-05-10T04:35:54;2.78;;;0.60;;
75189;SDS011;69198;44.694;37.790;2023-05-10T04:36:55;3.88;;;0.70;;
75189;SDS011;69198;44.694;37.790;2023-05-10T04:37:56;3.10;;;0.60;;
75189;SDS011;69198;44.694;37.790;2023-05-10T04:38:57;3.85;;;0.70;;
75189;SDS011;69198;44.694;37.790;2023-05-10T04:39:58;3.10;;;0.43;;
75189;SDS011;69198;44.694;37.790;2023-05-10T04:41:04;3.60;;;0.50;;
75189;SDS011;69198;44.694;37.790;2023-05-10T04:42:06;2.75;;;0.43;;
75189;SDS011;69198;44.694;37.790;2023-05-10T04:43:07;3.60;;;0.80;;
75189;SDS011;69198;44.694;37.790;2023-05-10T04:44:08;3.00;;;0.52;;
75189;SDS011;69198;44.694;37.790;2023-05-10T04:45:09;4.13;;;0.65;;
75189;SDS011;69198;44.694;37.790;2023-05-10T04:46:10;3.88;;;0.60;;
75189;SDS011;69198;44.694;37.790;2023-05-10T04:47:11;6.30;;;1.50;;
75189;SDS011;69198;44.694;37.790;2023-05-10T04:48:13;4.13;;;0.70;;
75189;SDS011;69198;44.694;37.790;2023-05-10T04:49:14;3.33;;;0.60;;
75189;SDS011;69198;44.694;37.790;2023-05-10T04:50:15;4.22;;;0.82;;
75189;SDS011;69198;44.694;37.790;2023-05-10T04:51:16;2.85;;;0.60;;
75189;SDS011;69198;44.694;37.790;2023-05-10T04:52:17;3.40;;;0.50;;
75189;SDS011;69198;44.694;37.790;2023-05-10T04:53:18;3.78;;;0.90;;
75189;SDS011;69198;44.694;37.790;2023-05-10T04:54:19;4.07;;;0.77;;
75189;SDS011;69198;44.694;37.790;2023-05-10T04:55:21;4.18;;;0.90;;
75189;SDS011;69198;44.694;37.790;2023-05-10T04:56:22;4.57;;;1.08;;
75189;SDS011;69198;44.694;37.790;2023-05-10T04:57:23;4.03;;;1.02;;
75189;SDS011;69198;44.694;37.790;2023-05-10T04:58:24;4.47;;;0.88;;
75189;SDS011;69198;44.694;37.790;2023-05-10T04:59:25;4.53;;;1.10;;
75189;SDS011;69198;44.694;37.790;2023-05-10T05:00:26;3.07;;;0.77;;
75189;SDS011;69198;44.694;37.790;2023-05-10T05:01:27;4.22;;;1.10;;
75189;SDS011;69198;44.694;37.790;2023-05-10T05:02:28;4.00;;;1.15;;
75189;SDS011;69198;44.694;37.790;2023-05-10T05:03:29;4.53;;;1.23;;
75189;SDS011;69198;44.694;37.790;2023-05-10T05:04:30;4.80;;;1.30;;
75189;SDS011;69198;44.694;37.790;2023-05-10T05:05:32;5.38;;;1.50;;
75189;SDS011;69198;44.694;37.790;2023-05-10T05:06:33;7.35;;;1.55;;
75189;SDS011;69198;44.694;37.790;2023-05-10T05:07:34;5.65;;;1.60;;
75189;SDS011;69198;44.694;37.790;2023-05-10T05:08:35;5.87;;;2.17;;
75189;SDS011;69198;44.694;37.790;2023-05-10T05:09:36;6.40;;;2.05;;
75189;SDS011;69198;44.694;37.790;2023-05-10T05:10:36;5.28;;;1.77;;
75189;SDS011;69198;44.694;37.790;2023-05-10T05:11:37;4.63;;;1.58;;
75189;SDS011;69198;44.694;37.790;2023-05-10T05:12:40;5.60;;;1.73;;
75189;SDS011;69198;44.694;37.790;2023-05-10T05:13:41;5.07;;;1.75;;
75189;SDS011;69198;44.694;37.790;2023-05-10T05:14:42;6.97;;;2.40;;
75189;SDS011;69198;44.694;37.790;2023-05-10T05:15:43;5.25;;;1.50;;
75189;SDS011;69198;44.694;37.790;2023-05-10T05:16:44;13.77;;;2.30;;
75189;SDS011;69198;44.694;37.790;2023-05-10T05:17:45;6.07;;;1.88;;
75189;SDS011;69198;44.694;37.790;2023-05-10T05:18:46;6.78;;;1.50;;
75189;SDS011;69198;44.694;37.790;2023-05-10T05:19:47;4.75;;;1.10;;
75189;SDS011;69198;44.694;37.790;2023-05-10T05:20:48;4.50;;;1.25;;
75189;SDS011;69198;44.694;37.790;2023-05-10T05:21:49;5.32;;;1.10;;
75189;SDS011;69198;44.694;37.790;2023-05-10T05:22:50;3.35;;;0.70;;
75189;SDS011;69198;44.694;37.790;2023-05-10T05:23:51;4.10;;;0.73;;
75189;SDS011;69198;44.694;37.790;2023-05-10T05:24:53;3.60;;;0.80;;
75189;SDS011;69198;44.694;37.790;2023-05-10T05:25:54;3.17;;;0.77;;
75189;SDS011;69198;44.694;37.790;2023-05-10T05:26:55;4.03;;;1.10;;
75189;SDS011;69198;44.694;37.790;2023-05-10T05:27:56;4.25;;;0.70;;
75189;SDS011;69198;44.694;37.790;2023-05-10T05:28:57;3.20;;;0.70;;
75189;SDS011;69198;44.694;37.790;2023-05-10T05:29:58;4.18;;;0.60;;
75189;SDS011;69198;44.694;37.790;2023-05-10T05:30:59;3.88;;;0.85;;
75189;SDS011;69198;44.694;37.790;2023-05-10T05:32:00;4.37;;;0.90;;
75189;SDS011;69198;44.694;37.790;2023-05-10T05:33:01;2.97;;;0.50;;
75189;SDS011;69198;44.694;37.790;2023-05-10T05:34:02;3.47;;;0.60;;
75189;SDS011;69198;44.694;37.790;2023-05-10T05:35:03;3.42;;;0.52;;
75189;SDS011;69198;44.694;37.790;2023-05-10T05:36:04;2.92;;;0.60;;
75189;SDS011;69198;44.694;37.790;2023-05-10T05:37:06;3.33;;;0.70;;
75189;SDS011;69198;44.694;37.790;2023-05-10T05:38:07;3.03;;;0.60;;
75189;SDS011;69198;44.694;37.790;2023-05-10T05:39:08;2.67;;;0.53;;
75189;SDS011;69198;44.694;37.790;2023-05-10T05:40:12;3.60;;;0.85;;
75189;SDS011;69198;44.694;37.790;2023-05-10T05:41:13;4.15;;;1.10;;
75189;SDS011;69198;44.694;37.790;2023-05-10T05:42:14;3.70;;;0.98;;
75189;SDS011;69198;44.694;37.790;2023-05-10T05:43:16;4.53;;;1.10;;
75189;SDS011;69198;44.694;37.790;2023-05-10T05:44:17;4.15;;;1.20;;
75189;SDS011;69198;44.694;37.790;2023-05-10T05:45:18;4.38;;;1.15;;
75189;SDS011;69198;44.694;37.790;2023-05-10T05:46:19;3.85;;;1.10;;
75189;SDS011;69198;44.694;37.790;2023-05-10T05:47:20;5.87;;;1.60;;
75189;SDS011;69198;44.694;37.790;2023-05-10T05:48:21;4.85;;;1.50;;
75189;SDS011;69198;44.694;37.790;2023-05-10T05:49:22;4.75;;;1.50;;
75189;SDS011;69198;44.694;37.790;2023-05-10T05:50:23;3.78;;;1.00;;
75189;SDS011;69198;44.694;37.790;2023-05-10T05:51:24;4.32;;;1.20;;
75189;SDS011;69198;44.694;37.790;2023-05-10T05:52:25;5.28;;;1.30;;
75189;SDS011;69198;44.694;37.790;2023-05-10T05:53:26;4.05;;;1.10;;
75189;SDS011;69198;44.694;37.790;2023-05-10T05:54:27;5.03;;;1.40;;
75189;SDS011;69198;44.694;37.790;2023-05-10T05:55:29;3.85;;;0.90;;
75189;SDS011;69198;44.694;37.790;2023-05-10T05:56:31;5.10;;;1.30;;
75189;SDS011;69198;44.694;37.790;2023-05-10T05:57:32;4.95;;;0.77;;
75189;SDS011;69198;44.694;37.790;2023-05-10T05:58:33;3.72;;;0.73;;
75189;SDS011;69198;44.694;37.790;2023-05-10T05:59:35;3.58;;;0.80;;
75189;SDS011;69198;44.694;37.790;2023-05-10T06:00:36;3.20;;;0.77;;
75189;SDS011;69198;44.694;37.790;2023-05-10T06:01:37;3.37;;;0.80;;
75189;SDS011;69198;44.694;37.790;2023-05-10T06:02:38;3.27;;;0.70;;
75189;SDS011;69198;44.694;37.790;2023-05-10T06:03:39;3.60;;;0.70;;
75189;SDS011;69198;44.694;37.790;2023-05-10T06:04:40;4.00;;;0.82;;
75189;SDS011;69198;44.694;37.790;2023-05-10T06:05:41;3.88;;;0.80;;
75189;SDS011;69198;44.694;37.790;2023-05-10T06:06:42;4.80;;;0.90;;
75189;SDS011;69198;44.694;37.790;2023-05-10T06:07:43;3.95;;;0.77;;
75189;SDS011;69198;44.694;37.790;2023-05-10T06:08:44;4.00;;;0.80;;
75189;SDS011;69198;44.694;37.790;2023-05-10T06:09:45;3.97;;;0.90;;
75189;SDS011;69198;44.694;37.790;2023-05-10T06:10:46;5.30;;;1.05;;
75189;SDS011;69198;44.694;37.790;2023-05-10T06:11:47;4.80;;;0.85;;
75189;SDS011;69198;44.694;37.790;2023-05-10T06:12:48;3.08;;;0.60;;
75189;SDS011;69198;44.694;37.790;2023-05-10T06:13:49;3.85;;;0.68;;
75189;SDS011;69198;44.694;37.790;2023-05-10T06:14:50;4.18;;;0.80;;
75189;SDS011;69198;44.694;37.790;2023-05-10T06:15:51;4.50;;;0.70;;
75189;SDS011;69198;44.694;37.790;2023-05-10T06:16:52;4.65;;;0.90;;
75189;SDS011;69198;44.694;37.790;2023-05-10T06:17:53;2.80;;;0.53;;
75189;SDS011;69198;44.694;37.790;2023-05-10T06:18:54;3.13;;;0.50;;
75189;SDS011;69198;44.694;37.790;2023-05-10T06:19:55;3.53;;;0.80;;
75189;SDS011;69198;44.694;37.790;2023-05-10T06:20:56;4.93;;;0.85;;
75189;SDS011;69198;44.694;37.790;2023-05-10T06:21:57;5.10;;;1.13;;
75189;SDS011;69198;44.694;37.790;2023-05-10T06:22:58;4.40;;;0.70;;
75189;SDS011;69198;44.694;37.790;2023-05-10T06:24:00;4.85;;;0.73;;
75189;SDS011;69198;44.694;37.790;2023-05-10T06:25:01;4.53;;;0.52;;
75189;SDS011;69198;44.694;37.790;2023-05-10T06:26:02;3.47;;;0.70;;
75189;SDS011;69198;44.694;37.790;2023-05-10T06:27:03;3.57;;;0.60;;
75189;SDS011;69198;44.694;37.790;2023-05-10T06:28:04;4.10;;;0.80;;
75189;SDS011;69198;44.694;37.790;2023-05-10T06:29:05;3.33;;;0.60;;
75189;SDS011;69198;44.694;37.790;2023-05-10T06:30:06;4.50;;;0.85;;
75189;SDS011;69198;44.694;37.790;2023-05-10T06:31:09;4.20;;;0.80;;
75189;SDS011;69198;44.694;37.790;2023-05-10T06:32:12;4.47;;;0.93;;